Barkersville, South Carolina
Current Conditions -  °F | °C
As of 3:56 AM on Sunday 23 Nov 2014 (Local Time) from KNBC Reporting Station
Light Rain Light Rain  
Wind Chill: 58°   Ceiling: 6000
Heat Index: 58°   Visibility: 7mi
Dew Point: 56°   Wind: 8mph
Humidity: 93%   Direction: 50°NE
Pressure: 30.15"   Gusts: NA
Location:  32.6221°N, 81.0484°W
Report Text: KNBC 230856Z AUTO 05007KT 7SM -RA FEW034 BKN060 OVC110 14/13 A3015 RMK AO2 RAB30 SLP210 P0003 60005 T01440133 56024 $
Loading
Personal Weather Stations






























Interactive Weather Map New forecast layout! Learn more

10-Day Weather Forecast

Advertisements
Track Severe Weather on mobile